createdAt,value
2018-06-01T00:00:16.565Z,17.36
2018-06-01T00:01:16.893Z,17.49
2018-06-01T00:02:17.451Z,17.43
2018-06-01T00:03:16.776Z,17.49
2018-06-01T00:04:17.125Z,17.43
2018-06-01T00:05:18.391Z,17.38
2018-06-01T00:06:18.819Z,17.37
2018-06-01T00:07:10.452Z,17.40
2018-06-01T00:08:19.479Z,17.33
2018-06-01T00:09:18.792Z,17.40
2018-06-01T00:10:19.182Z,17.34
2018-06-01T00:11:20.372Z,17.37
2018-06-01T00:12:20.739Z,17.40
2018-06-01T00:13:21.133Z,17.38
2018-06-01T00:14:20.607Z,17.36
2018-06-01T00:15:13.162Z,17.37
2018-06-01T00:16:22.095Z,17.36
2018-06-01T00:17:23.580Z,17.48
2018-06-01T00:18:22.765Z,17.46
2018-06-01T00:19:14.433Z,17.48
2018-06-01T00:20:23.326Z,17.49
2018-06-01T00:21:23.733Z,17.52
2018-06-01T00:22:15.453Z,17.49
2018-06-01T00:23:15.698Z,17.54
2018-06-01T00:24:24.684Z,17.54
2018-06-01T00:25:24.085Z,17.56
2018-06-01T00:26:24.358Z,17.56
2018-06-01T00:27:17.004Z,17.54
2018-06-01T00:28:25.928Z,17.54
2018-06-01T00:29:26.273Z,17.66
2018-06-01T00:30:25.678Z,17.64
2018-06-01T00:31:25.953Z,17.58
2018-06-01T00:32:27.379Z,17.54
2018-06-01T00:33:19.086Z,17.52
2018-06-01T00:34:27.016Z,17.54
2018-06-01T00:35:28.265Z,17.58
2018-06-01T00:36:27.663Z,17.68
2018-06-01T00:37:27.962Z,17.66
2018-06-01T00:38:28.257Z,17.72
2018-06-01T00:39:28.586Z,17.68
2018-06-01T00:40:29.923Z,17.82
2018-06-01T00:41:21.584Z,17.70
2018-06-01T00:42:21.809Z,17.71
2018-06-01T00:43:29.816Z,17.71
2018-06-01T00:44:30.089Z,17.71
2018-06-01T00:45:31.368Z,17.68
2018-06-01T00:46:30.783Z,17.59
2018-06-01T00:47:23.435Z,17.66
2018-06-01T00:48:31.301Z,17.70
2018-06-01T00:49:32.626Z,17.64
2018-06-01T00:50:32.117Z,17.52
2018-06-01T00:51:32.510Z,17.48
2018-06-01T00:52:25.120Z,17.55
2018-06-01T00:53:34.009Z,17.38
2018-06-01T00:54:25.680Z,17.25
2018-06-01T00:55:33.669Z,17.14
2018-06-01T00:56:35.905Z,17.03
2018-06-01T00:57:26.487Z,16.98
2018-06-01T00:58:34.358Z,16.91
2018-06-01T00:59:27.100Z,16.91
2018-06-01T01:00:27.252Z,16.93
2018-06-01T01:01:27.501Z,16.94
2018-06-01T01:02:27.731Z,16.89
2018-06-01T01:03:27.952Z,16.89
2018-06-01T01:04:36.958Z,16.85
2018-06-01T01:05:28.587Z,16.83
2018-06-01T01:06:36.507Z,16.89
2018-06-01T01:07:37.848Z,16.88
2018-06-01T01:08:29.601Z,16.88
2018-06-01T01:09:37.527Z,16.96
2018-06-01T01:10:30.130Z,16.93
2018-06-01T01:11:30.338Z,16.89
2018-06-01T01:12:38.358Z,16.93
2018-06-01T01:13:30.900Z,16.93
2018-06-01T01:14:31.133Z,16.98
2018-06-01T01:15:39.070Z,16.94
2018-06-01T01:16:40.393Z,16.96
2018-06-01T01:17:40.823Z,16.93
2018-06-01T01:18:32.477Z,16.93
2018-06-01T01:19:32.741Z,16.93
2018-06-01T01:20:32.948Z,16.91
2018-06-01T01:21:33.217Z,17.08
2018-06-01T01:22:33.412Z,17.04
2018-06-01T01:23:33.669Z,17.15
2018-06-01T01:24:42.627Z,17.21
2018-06-01T01:25:43.031Z,17.25
2018-06-01T01:26:43.494Z,17.21
2018-06-01T01:27:35.119Z,17.23
2018-06-01T01:28:35.369Z,17.18
2018-06-01T01:29:35.590Z,17.22
2018-06-01T01:30:44.549Z,17.25
2018-06-01T01:31:36.096Z,17.21
2018-06-01T01:32:44.016Z,17.15
2018-06-01T01:33:36.620Z,17.14
2018-06-01T01:34:45.533Z,17.19
2018-06-01T01:35:44.917Z,17.21
2018-06-01T01:36:37.546Z,17.26
2018-06-01T01:37:45.534Z,17.23
2018-06-01T01:38:38.134Z,17.33
2018-06-01T01:39:38.305Z,17.28
2018-06-01T01:40:38.558Z,17.11
2018-06-01T01:41:47.623Z,17.06
2018-06-01T01:42:47.648Z,17.12
2018-06-01T01:43:39.458Z,17.18
2018-06-01T01:44:39.616Z,17.18
2018-06-01T01:45:47.553Z,17.16
2018-06-01T01:46:40.153Z,17.22
2018-06-01T01:47:48.099Z,17.16
2018-06-01T01:48:49.382Z,17.21
2018-06-01T01:49:41.223Z,17.18
2018-06-01T01:50:50.194Z,17.25
2018-06-01T01:51:49.410Z,17.16
2018-06-01T01:52:50.705Z,17.28
2018-06-01T01:53:42.426Z,17.19
2018-06-01T01:54:42.625Z,17.33
2018-06-01T01:55:42.900Z,17.22
2018-06-01T01:56:43.100Z,17.34
2018-06-01T01:57:43.362Z,17.33
2018-06-01T01:58:51.405Z,17.34
2018-06-01T01:59:52.634Z,17.46
2018-06-01T02:00:44.348Z,17.54
2018-06-01T02:01:52.265Z,17.48
2018-06-01T02:02:53.554Z,17.54
2018-06-01T02:03:45.294Z,17.56
2018-06-01T02:04:45.492Z,17.54
2018-06-01T02:05:45.734Z,17.59
2018-06-01T02:06:54.662Z,17.59
2018-06-01T02:07:46.393Z,17.51
2018-06-01T02:08:46.671Z,17.46
2018-06-01T02:09:54.622Z,17.38
2018-06-01T02:10:54.905Z,17.37
2018-06-01T02:11:47.589Z,17.36
2018-06-01T02:12:56.521Z,17.34
2018-06-01T02:13:56.846Z,17.30
2018-06-01T02:14:57.250Z,17.33
2018-06-01T02:15:58.685Z,17.37
2018-06-01T02:16:56.886Z,17.43
2018-06-01T02:17:49.540Z,17.43
2018-06-01T02:18:57.467Z,17.40
2018-06-01T02:19:58.750Z,17.40
2018-06-01T02:20:50.619Z,17.33
2018-06-01T02:21:59.379Z,17.38
2018-06-01T02:22:59.797Z,17.40
2018-06-01T02:24:00.178Z,17.38
2018-06-01T02:24:51.845Z,17.38
2018-06-01T02:26:00.739Z,17.31
2018-06-01T02:27:01.269Z,17.33
2018-06-01T02:28:01.496Z,17.33
2018-06-01T02:29:01.941Z,17.34
2018-06-01T02:30:01.318Z,17.26
2018-06-01T02:30:53.916Z,17.23
2018-06-01T02:32:01.992Z,17.40
2018-06-01T02:33:03.321Z,17.36
2018-06-01T02:34:03.644Z,17.40
2018-06-01T02:35:03.042Z,17.48
2018-06-01T02:36:04.355Z,17.41
2018-06-01T02:37:04.702Z,17.44
2018-06-01T02:38:05.107Z,17.48
2018-06-01T02:38:56.818Z,17.52
2018-06-01T02:40:05.755Z,17.54
2018-06-01T02:40:57.473Z,17.62
2018-06-01T02:42:06.356Z,17.62
2018-06-01T02:43:06.869Z,17.68
2018-06-01T02:44:07.197Z,17.86
2018-06-01T02:45:06.596Z,17.89
2018-06-01T02:46:06.867Z,17.86
2018-06-01T02:47:08.177Z,17.81
2018-06-01T02:48:07.579Z,17.79
2018-06-01T02:49:08.019Z,17.75
2018-06-01T02:50:08.414Z,17.82
2018-06-01T02:51:09.610Z,17.82
2018-06-01T02:52:10.020Z,17.82
2018-06-01T02:53:10.487Z,17.75
2018-06-01T02:54:10.557Z,17.75
2018-06-01T02:55:11.135Z,17.74
2018-06-01T02:56:11.306Z,17.78
2018-06-01T02:57:11.473Z,17.90
2018-06-01T02:58:11.782Z,17.86
2018-06-01T02:59:11.239Z,17.89
2018-06-01T03:00:11.581Z,17.93
2018-06-01T03:01:12.899Z,18.11
2018-06-01T03:02:14.367Z,18.14
2018-06-01T03:03:13.523Z,18.37
2018-06-01T03:04:13.905Z,18.41
2018-06-01T03:05:05.622Z,18.51
2018-06-01T03:06:14.514Z,18.32
2018-06-01T03:07:13.884Z,18.33
2018-06-01T03:08:15.224Z,18.30
2018-06-01T03:09:06.925Z,18.29
2018-06-01T03:10:07.111Z,18.44
2018-06-01T03:11:07.328Z,18.48
2018-06-01T03:12:07.564Z,18.48
2018-06-01T03:13:07.818Z,18.37
2018-06-01T03:14:08.035Z,18.44
2018-06-01T03:15:08.274Z,18.57
2018-06-01T03:16:08.515Z,18.52
2018-06-01T03:17:08.755Z,18.60
2018-06-01T03:18:08.988Z,18.50
2018-06-01T03:19:09.232Z,18.51
2018-06-01T03:20:09.483Z,18.35
2018-06-01T03:21:09.720Z,18.32
2018-06-01T03:22:09.959Z,18.32
2018-06-01T03:23:10.209Z,18.23
2018-06-01T03:24:10.422Z,18.15
2018-06-01T03:25:10.680Z,18.12
2018-06-01T03:26:10.939Z,18.10
2018-06-01T03:27:11.181Z,18.10
2018-06-01T03:28:11.387Z,18.08
2018-06-01T03:29:11.635Z,18.05
2018-06-01T03:30:11.864Z,18.08
2018-06-01T03:31:12.100Z,18.03
2018-06-01T03:32:12.331Z,18.03
2018-06-01T03:33:12.564Z,18.03
2018-06-01T03:34:12.810Z,18.03
2018-06-01T03:35:13.073Z,18.00
2018-06-01T03:36:13.326Z,17.97
2018-06-01T03:37:13.547Z,17.93
2018-06-01T03:38:13.793Z,17.96
2018-06-01T03:39:14.008Z,17.93
2018-06-01T03:40:14.269Z,17.93
2018-06-01T03:41:14.513Z,17.90
2018-06-01T03:42:14.761Z,17.87
2018-06-01T03:43:15.018Z,17.92
2018-06-01T03:44:15.247Z,17.89
2018-06-01T03:45:15.524Z,17.92
2018-06-01T03:46:15.724Z,17.95
2018-06-01T03:47:15.975Z,18.02
2018-06-01T03:48:16.210Z,17.90
2018-06-01T03:49:16.426Z,17.97
2018-06-01T03:50:16.666Z,17.95
2018-06-01T03:51:16.904Z,17.96
2018-06-01T03:52:17.134Z,17.92
2018-06-01T03:53:17.395Z,17.92
2018-06-01T03:54:17.630Z,18.00
2018-06-01T03:55:17.873Z,18.03
2018-06-01T03:56:18.107Z,18.02
2018-06-01T03:57:18.332Z,18.05
2018-06-01T03:58:18.574Z,17.99
2018-06-01T03:59:18.838Z,18.00
2018-06-01T04:00:19.063Z,17.96
2018-06-01T04:01:19.322Z,17.95
2018-06-01T04:02:19.538Z,17.87
2018-06-01T04:03:19.789Z,18.00
2018-06-01T04:04:20.023Z,17.95
2018-06-01T04:05:20.269Z,17.99
2018-06-01T04:06:20.503Z,18.00
2018-06-01T04:07:20.735Z,18.03
2018-06-01T04:08:20.994Z,17.93
2018-06-01T04:09:21.226Z,17.92
2018-06-01T04:10:21.448Z,17.93
2018-06-01T04:11:21.722Z,17.99
2018-06-01T04:12:21.928Z,17.99
2018-06-01T04:13:22.161Z,18.08
2018-06-01T04:14:22.403Z,18.07
2018-06-01T04:15:22.669Z,17.93
2018-06-01T04:16:22.898Z,17.89
2018-06-01T04:17:23.097Z,17.82
2018-06-01T04:18:23.344Z,17.89
2018-06-01T04:19:23.602Z,17.78
2018-06-01T04:20:23.835Z,17.90
2018-06-01T04:21:24.080Z,17.87
2018-06-01T04:22:24.326Z,17.89
2018-06-01T04:23:24.604Z,17.90
2018-06-01T04:24:24.833Z,17.87
2018-06-01T04:25:25.083Z,17.87
2018-06-01T04:26:25.336Z,17.86
2018-06-01T04:27:25.555Z,17.87
2018-06-01T04:28:25.815Z,17.86
2018-06-01T04:29:26.061Z,17.89
2018-06-01T04:30:26.287Z,17.90
2018-06-01T04:31:26.524Z,17.87
2018-06-01T04:32:26.741Z,17.89
2018-06-01T04:33:27.043Z,17.81
2018-06-01T04:34:27.265Z,17.89
2018-06-01T04:35:27.511Z,17.89
2018-06-01T04:36:27.748Z,17.86
2018-06-01T04:37:27.969Z,17.84
2018-06-01T04:38:28.219Z,17.90
2018-06-01T04:39:28.471Z,17.90
2018-06-01T04:40:28.716Z,17.77
2018-06-01T04:41:28.940Z,17.86
2018-06-01T04:42:29.170Z,17.87
2018-06-01T04:43:29.419Z,17.78
2018-06-01T04:44:29.651Z,17.89
2018-06-01T04:45:29.874Z,17.89
2018-06-01T04:46:30.119Z,17.81
2018-06-01T04:47:30.359Z,17.78
2018-06-01T04:48:30.621Z,17.87
2018-06-01T04:49:30.848Z,17.82
2018-06-01T04:50:31.101Z,17.86
2018-06-01T04:51:31.338Z,17.86
2018-06-01T04:52:31.584Z,17.87
2018-06-01T04:53:31.845Z,17.86
2018-06-01T04:54:32.071Z,17.84
2018-06-01T04:55:32.314Z,17.87
2018-06-01T04:56:32.534Z,17.96
2018-06-01T04:57:32.776Z,17.81
2018-06-01T04:58:33.013Z,17.75
2018-06-01T04:59:33.276Z,17.87
2018-06-01T05:00:33.488Z,17.82
2018-06-01T05:01:33.758Z,17.92
2018-06-01T05:02:34.001Z,17.92
2018-06-01T05:03:34.207Z,17.90
2018-06-01T05:04:34.474Z,17.96
2018-06-01T05:05:34.731Z,18.05
2018-06-01T05:06:34.960Z,17.95
2018-06-01T05:07:35.200Z,17.99
2018-06-01T05:08:35.440Z,18.07
2018-06-01T05:09:35.676Z,18.20
2018-06-01T05:10:35.929Z,18.15
2018-06-01T05:11:36.169Z,18.17
2018-06-01T05:12:36.388Z,18.30
2018-06-01T05:13:36.621Z,18.32
2018-06-01T05:14:36.872Z,18.27
2018-06-01T05:15:37.114Z,18.33
2018-06-01T05:16:37.369Z,18.37
2018-06-01T05:17:37.590Z,18.48
2018-06-01T05:18:37.828Z,18.51
2018-06-01T05:19:38.102Z,18.52
2018-06-01T05:20:38.310Z,18.55
2018-06-01T05:21:38.564Z,18.51
2018-06-01T05:22:38.784Z,18.37
2018-06-01T05:23:39.051Z,18.48
2018-06-01T05:24:39.285Z,18.51
2018-06-01T05:25:39.515Z,18.48
2018-06-01T05:26:39.751Z,18.52
2018-06-01T05:27:40.000Z,18.58
2018-06-01T05:28:40.266Z,18.81
2018-06-01T05:29:40.500Z,18.85
2018-06-01T05:30:40.710Z,18.92
2018-06-01T05:31:40.975Z,18.99
2018-06-01T05:32:41.223Z,19.07
2018-06-01T05:33:41.453Z,19.16
2018-06-01T05:34:41.675Z,19.18
2018-06-01T05:35:41.904Z,19.31
2018-06-01T05:36:42.171Z,19.37
2018-06-01T05:37:42.414Z,19.62
2018-06-01T05:38:42.631Z,19.69
2018-06-01T05:39:42.869Z,19.69
2018-06-01T05:40:43.114Z,19.66
2018-06-01T05:41:43.339Z,19.66
2018-06-01T05:42:43.589Z,19.66
2018-06-01T05:43:43.825Z,19.81
2018-06-01T05:44:44.076Z,19.76
2018-06-01T05:45:44.309Z,19.71
2018-06-01T05:46:44.568Z,19.62
2018-06-01T05:47:44.809Z,19.71
2018-06-01T05:48:45.054Z,19.65
2018-06-01T05:49:45.313Z,19.62
2018-06-01T05:50:45.510Z,19.47
2018-06-01T05:51:45.765Z,19.54
2018-06-01T05:52:46.030Z,19.55
2018-06-01T05:53:46.268Z,19.47
2018-06-01T05:54:46.480Z,19.51
2018-06-01T05:55:46.728Z,19.51
2018-06-01T05:56:47.027Z,19.59
2018-06-01T05:57:47.209Z,19.62
2018-06-01T05:58:47.448Z,19.51
2018-06-01T05:59:47.707Z,19.62
2018-06-01T06:00:47.923Z,19.63
2018-06-01T06:01:48.171Z,19.56
2018-06-01T06:02:48.409Z,19.65
2018-06-01T06:03:48.653Z,19.59
2018-06-01T06:04:57.620Z,19.46
2018-06-01T06:05:56.989Z,19.39
2018-06-01T06:06:49.598Z,19.36
2018-06-01T06:07:49.845Z,19.43
2018-06-01T06:08:50.080Z,19.28
2018-06-01T06:09:58.964Z,19.37
2018-06-01T06:10:50.719Z,19.41
2018-06-01T06:11:58.655Z,19.37
2018-06-01T06:12:51.323Z,19.36
2018-06-01T06:13:51.508Z,19.48
2018-06-01T06:14:51.758Z,19.58
2018-06-01T06:15:59.723Z,19.65
2018-06-01T06:16:52.364Z,19.44
2018-06-01T06:17:52.555Z,19.54
2018-06-01T06:19:01.438Z,19.43
2018-06-01T06:20:01.834Z,19.41
2018-06-01T06:20:53.587Z,19.58
2018-06-01T06:22:01.427Z,19.50
2018-06-01T06:23:02.797Z,19.63
2018-06-01T06:24:03.187Z,19.73
2018-06-01T06:24:54.927Z,19.77
2018-06-01T06:25:55.146Z,19.68
2018-06-01T06:26:55.378Z,19.54
2018-06-01T06:27:55.597Z,19.51
2018-06-01T06:29:03.521Z,19.41
2018-06-01T06:30:04.924Z,19.56
2018-06-01T06:31:05.358Z,19.61
2018-06-01T06:31:56.830Z,19.59
2018-06-01T06:33:04.720Z,19.77
2018-06-01T06:33:57.375Z,19.83
2018-06-01T06:34:57.569Z,19.83
2018-06-01T06:36:05.473Z,19.80
2018-06-01T06:36:58.154Z,19.81
2018-06-01T06:38:07.020Z,19.81
2018-06-01T06:38:58.759Z,19.83
2018-06-01T06:40:07.677Z,19.62
2018-06-01T06:41:07.053Z,19.44
2018-06-01T06:42:08.367Z,19.41
2018-06-01T06:43:07.829Z,19.26
2018-06-01T06:44:08.092Z,19.07
2018-06-01T06:45:08.360Z,19.10
2018-06-01T06:46:01.099Z,19.00
2018-06-01T06:47:01.301Z,18.87
2018-06-01T06:48:09.309Z,18.78
2018-06-01T06:49:09.668Z,18.78
2018-06-01T06:50:10.909Z,18.73
2018-06-01T06:51:11.303Z,18.80
2018-06-01T06:52:10.733Z,18.70
2018-06-01T06:53:12.258Z,18.65
2018-06-01T06:54:12.413Z,18.55
2018-06-01T06:55:12.660Z,18.57
2018-06-01T06:56:13.020Z,18.55
2018-06-01T06:57:13.474Z,18.62
2018-06-01T06:58:12.908Z,18.60
2018-06-01T06:59:14.118Z,18.65
2018-06-01T07:00:14.738Z,18.67
2018-06-01T07:01:14.948Z,18.73
2018-06-01T07:02:14.358Z,18.81
2018-06-01T07:03:15.540Z,18.82
2018-06-01T07:04:14.998Z,18.85
2018-06-01T07:05:16.278Z,18.85
2018-06-01T07:06:15.645Z,18.73
2018-06-01T07:07:16.037Z,18.78
2018-06-01T07:08:16.487Z,18.63
2018-06-01T07:09:16.684Z,18.60
2018-06-01T07:10:18.053Z,18.70
2018-06-01T07:11:18.394Z,18.66
2018-06-01T07:12:17.782Z,18.63
2018-06-01T07:13:19.162Z,18.52
2018-06-01T07:14:19.549Z,18.62
2018-06-01T07:15:19.881Z,18.60
2018-06-01T07:16:20.218Z,18.52
2018-06-01T07:17:20.662Z,18.63
2018-06-01T07:18:21.067Z,18.60
2018-06-01T07:19:21.432Z,18.51
2018-06-01T07:20:21.897Z,18.50
2018-06-01T07:21:21.484Z,18.48
2018-06-01T07:22:22.777Z,18.36
2018-06-01T07:23:23.081Z,18.45
2018-06-01T07:24:22.646Z,18.32
2018-06-01T07:25:22.837Z,18.33
2018-06-01T07:26:24.106Z,18.39
2018-06-01T07:27:24.479Z,18.50
2018-06-01T07:28:24.875Z,18.72
2018-06-01T07:29:24.287Z,18.73
2018-06-01T07:30:25.547Z,18.95
2018-06-01T07:31:25.952Z,18.88
2018-06-01T07:32:25.334Z,18.91
2018-06-01T07:33:25.870Z,18.95
2018-06-01T07:34:26.117Z,19.02
2018-06-01T07:35:26.491Z,18.99
2018-06-01T07:36:28.669Z,19.06
2018-06-01T07:37:27.926Z,18.87
2018-06-01T07:38:27.296Z,18.78
2018-06-01T07:39:27.657Z,18.72
2018-06-01T07:40:28.010Z,18.82
2018-06-01T07:41:28.325Z,18.82
2018-06-01T07:42:29.631Z,19.04
2018-06-01T07:43:28.967Z,18.99
2018-06-01T07:44:29.349Z,19.02
2018-06-01T07:45:30.741Z,19.04
2018-06-01T07:46:29.839Z,18.94
2018-06-01T07:47:30.199Z,19.13
2018-06-01T07:48:31.461Z,19.21
2018-06-01T07:49:30.901Z,19.00
2018-06-01T07:50:32.246Z,19.31
2018-06-01T07:51:31.616Z,19.26
2018-06-01T07:52:32.970Z,19.23
2018-06-01T07:53:32.361Z,19.18
2018-06-01T07:54:32.762Z,19.23
2018-06-01T07:55:32.976Z,19.25
2018-06-01T07:56:34.341Z,19.25
2018-06-01T07:57:33.686Z,19.25
2018-06-01T07:58:34.037Z,19.37
2018-06-01T07:59:35.365Z,19.55
2018-06-01T08:00:34.752Z,19.71
2018-06-01T08:01:35.017Z,19.56
2018-06-01T08:02:36.336Z,19.40
2018-06-01T08:03:35.754Z,19.51
2018-06-01T08:04:36.129Z,19.62
2018-06-01T08:05:37.438Z,19.56
2018-06-01T08:06:37.811Z,19.63
2018-06-01T08:07:37.184Z,19.46
2018-06-01T08:08:38.488Z,19.59
2018-06-01T08:09:37.865Z,19.58
2018-06-01T08:10:38.239Z,19.61
2018-06-01T08:11:39.647Z,19.58
2018-06-01T08:12:39.935Z,19.51
2018-06-01T08:13:40.338Z,19.68
2018-06-01T08:14:39.818Z,19.88
2018-06-01T08:15:41.083Z,19.95
2018-06-01T08:16:40.463Z,19.51
2018-06-01T08:17:33.165Z,19.76
2018-06-01T08:18:42.010Z,19.77
2018-06-01T08:19:42.419Z,19.62
2018-06-01T08:20:42.775Z,19.77
2018-06-01T08:21:43.168Z,19.81
2018-06-01T08:22:42.520Z,19.69
2018-06-01T08:23:43.893Z,19.77
2018-06-01T08:24:44.302Z,19.69
2018-06-01T08:25:43.693Z,19.83
2018-06-01T08:26:44.008Z,19.80
2018-06-01T08:27:45.309Z,19.73
2018-06-01T08:28:46.714Z,19.50
2018-06-01T08:29:44.981Z,19.39
2018-06-01T08:30:45.281Z,19.22
2018-06-01T08:31:46.553Z,19.31
2018-06-01T08:32:46.197Z,19.19
2018-06-01T08:33:46.185Z,19.26
2018-06-01T08:34:47.612Z,19.47
2018-06-01T08:35:47.923Z,19.73
2018-06-01T08:36:47.451Z,19.77
2018-06-01T08:37:48.737Z,20.01
2018-06-01T08:38:49.091Z,20.11
2018-06-01T08:39:49.517Z,20.42
2018-06-01T08:40:48.833Z,20.59
2018-06-01T08:41:50.168Z,20.87
2018-06-01T08:42:50.590Z,21.03
2018-06-01T08:43:50.981Z,20.92
2018-06-01T08:44:51.366Z,20.42
2018-06-01T08:45:51.757Z,20.64
2018-06-01T08:46:52.151Z,20.73
2018-06-01T08:47:52.529Z,20.84
2018-06-01T08:48:52.910Z,20.64
2018-06-01T08:49:53.312Z,20.51
2018-06-01T08:50:44.985Z,20.38
2018-06-01T08:51:52.948Z,20.24
2018-06-01T08:52:54.262Z,20.28
2018-06-01T08:53:54.655Z,20.32
2018-06-01T08:54:55.076Z,20.21
2018-06-01T08:55:55.441Z,20.24
2018-06-01T08:56:54.858Z,20.28
2018-06-01T08:57:56.207Z,20.35
2018-06-01T08:58:55.576Z,20.51
2018-06-01T08:59:56.876Z,20.32
2018-06-01T09:00:56.276Z,20.33
2018-06-01T09:01:56.585Z,20.35
2018-06-01T09:02:57.980Z,20.35
2018-06-01T09:03:57.320Z,20.58
2018-06-01T09:04:58.563Z,20.77
2018-06-01T09:05:57.955Z,20.85
2018-06-01T09:07:00.359Z,20.84
2018-06-01T09:07:59.605Z,20.98
2018-06-01T09:08:59.980Z,21.14
2018-06-01T09:10:00.375Z,21.04
2018-06-01T09:11:00.763Z,20.99
2018-06-01T09:12:01.092Z,20.94
2018-06-01T09:13:00.513Z,20.94
2018-06-01T09:14:00.851Z,20.99
2018-06-01T09:15:02.146Z,21.10
2018-06-01T09:16:02.543Z,21.09
2018-06-01T09:17:01.990Z,21.24
2018-06-01T09:18:02.208Z,21.04
2018-06-01T09:19:02.584Z,21.04
2018-06-01T09:20:03.895Z,21.04
2018-06-01T09:21:04.302Z,21.17
2018-06-01T09:22:03.701Z,21.24
2018-06-01T09:23:04.067Z,21.16
2018-06-01T09:24:05.351Z,21.24
2018-06-01T09:25:06.806Z,21.19
2018-06-01T09:26:04.944Z,21.01
2018-06-01T09:27:06.290Z,21.17
2018-06-01T09:28:05.619Z,21.24
2018-06-01T09:29:06.989Z,20.77
2018-06-01T09:30:07.311Z,21.04
2018-06-01T09:31:06.788Z,21.13
2018-06-01T09:32:08.035Z,21.22
2018-06-01T09:33:08.514Z,21.12
2018-06-01T09:34:07.927Z,21.16
2018-06-01T09:35:08.204Z,21.04
2018-06-01T09:36:09.490Z,20.87
2018-06-01T09:37:01.188Z,20.87
2018-06-01T09:38:10.146Z,20.89
2018-06-01T09:39:09.507Z,20.91
2018-06-01T09:40:02.147Z,20.87
2018-06-01T09:41:10.241Z,21.01
2018-06-01T09:42:10.476Z,21.27
2018-06-01T09:43:11.717Z,21.28
2018-06-01T09:44:11.155Z,21.21
2018-06-01T09:45:11.502Z,21.40
2018-06-01T09:46:11.769Z,21.29
2018-06-01T09:47:13.134Z,21.43
2018-06-01T09:48:13.545Z,21.49
2018-06-01T09:49:13.945Z,21.49
2018-06-01T09:50:05.658Z,21.24
2018-06-01T09:51:05.845Z,21.29
2018-06-01T09:52:13.733Z,21.21
2018-06-01T09:53:14.081Z,21.27
2018-06-01T09:54:15.408Z,21.46
2018-06-01T09:55:14.804Z,21.29
2018-06-01T09:56:15.158Z,20.97
2018-06-01T09:57:16.472Z,20.89
2018-06-01T09:58:15.837Z,20.85
2018-06-01T09:59:08.521Z,20.76
2018-06-01T10:00:17.404Z,20.87
2018-06-01T10:01:16.835Z,20.97
2018-06-01T10:02:17.201Z,20.92
2018-06-01T10:03:17.450Z,21.04
2018-06-01T10:04:18.798Z,20.99
2018-06-01T10:05:19.211Z,21.10
2018-06-01T10:06:18.546Z,21.09
2018-06-01T10:07:19.866Z,21.42
2018-06-01T10:08:20.245Z,21.47
2018-06-01T10:09:20.706Z,21.58
2018-06-01T10:10:20.103Z,21.52
2018-06-01T10:11:20.497Z,21.61
2018-06-01T10:12:20.695Z,21.52
2018-06-01T10:13:22.044Z,21.79
2018-06-01T10:14:21.472Z,21.56
2018-06-01T10:15:23.773Z,21.91
2018-06-01T10:16:23.160Z,22.06
2018-06-01T10:17:23.364Z,21.98
2018-06-01T10:18:15.095Z,22.22
2018-06-01T10:19:23.981Z,22.42
2018-06-01T10:20:24.365Z,22.27
2018-06-01T10:21:24.789Z,22.22
2018-06-01T10:22:16.534Z,22.24
2018-06-01T10:23:25.476Z,22.42
2018-06-01T10:24:24.827Z,22.28
2018-06-01T10:25:27.118Z,22.76
2018-06-01T10:26:17.682Z,22.46
2018-06-01T10:27:25.606Z,22.35
2018-06-01T10:28:26.865Z,21.96
2018-06-01T10:29:26.326Z,21.98
2018-06-01T10:30:26.631Z,22.07
2018-06-01T10:31:26.942Z,21.82
2018-06-01T10:32:27.257Z,21.72
2018-06-01T10:33:28.631Z,21.84
2018-06-01T10:34:28.971Z,21.92
2018-06-01T10:35:28.351Z,22.05
2018-06-01T10:36:28.735Z,22.52
2018-06-01T10:37:28.975Z,22.73
2018-06-01T10:38:30.289Z,24.57
2018-06-01T10:39:30.759Z,25.54
2018-06-01T10:40:30.216Z,26.07
2018-06-01T10:41:31.401Z,26.40
2018-06-01T10:42:32.838Z,26.55
2018-06-01T10:43:31.092Z,26.21
2018-06-01T10:44:23.705Z,24.95
2018-06-01T10:45:31.666Z,24.37
2018-06-01T10:46:24.279Z,23.95
2018-06-01T10:47:32.202Z,23.35
2018-06-01T10:48:33.492Z,23.48
2018-06-01T10:49:33.923Z,24.05
2018-06-01T10:50:33.260Z,24.91
2018-06-01T10:51:25.945Z,25.65
2018-06-01T10:52:26.167Z,25.54
2018-06-01T10:53:34.091Z,25.15
2018-06-01T10:54:26.776Z,24.95
2018-06-01T10:55:26.999Z,24.34
2018-06-01T10:56:34.958Z,23.83
2018-06-01T10:57:36.279Z,23.51
2018-06-01T10:58:36.666Z,24.76
2018-06-01T10:59:28.354Z,26.54
2018-06-01T11:00:36.325Z,25.57
2018-06-01T11:01:29.056Z,25.15
2018-06-01T11:02:37.876Z,25.03
2018-06-01T11:03:29.620Z,25.69
2018-06-01T11:04:29.884Z,26.13
2018-06-01T11:05:30.115Z,25.64
2018-06-01T11:06:37.997Z,24.80
2018-06-01T11:07:30.740Z,24.47
2018-06-01T11:08:30.926Z,24.84
2018-06-01T11:09:31.164Z,25.38
2018-06-01T11:10:39.050Z,25.24
2018-06-01T11:11:31.712Z,24.77
2018-06-01T11:12:31.963Z,25.27
2018-06-01T11:13:32.213Z,25.05
2018-06-01T11:14:32.531Z,24.99
2018-06-01T11:15:32.716Z,25.76
2018-06-01T11:16:32.966Z,25.28
2018-06-01T11:17:33.213Z,24.95
2018-06-01T11:18:33.467Z,24.27
2018-06-01T11:19:33.714Z,24.39
2018-06-01T11:20:33.972Z,25.17
2018-06-01T11:21:34.258Z,25.09
2018-06-01T11:22:34.467Z,25.47
2018-06-01T11:23:34.714Z,25.54
2018-06-01T11:24:34.966Z,24.83
2018-06-01T11:25:35.218Z,24.27
2018-06-01T11:26:35.465Z,24.12
2018-06-01T11:27:35.718Z,24.20
2018-06-01T11:28:35.974Z,23.94
2018-06-01T11:29:36.224Z,23.90
2018-06-01T11:30:36.475Z,24.31
2018-06-01T11:31:36.733Z,24.47
2018-06-01T11:32:36.970Z,24.87
2018-06-01T11:33:37.220Z,24.58
2018-06-01T11:34:37.476Z,24.27
2018-06-01T11:35:37.708Z,23.84
2018-06-01T11:36:37.967Z,23.53
2018-06-01T11:37:38.232Z,23.38
2018-06-01T11:38:38.455Z,23.51
2018-06-01T11:39:38.708Z,23.53
2018-06-01T11:40:38.983Z,23.51
2018-06-01T11:41:39.203Z,23.83
2018-06-01T11:42:39.444Z,23.88
2018-06-01T11:43:39.697Z,23.61
2018-06-01T11:44:39.948Z,23.50
2018-06-01T11:45:40.199Z,24.28
2018-06-01T11:46:40.443Z,24.55
2018-06-01T11:47:40.700Z,24.31
2018-06-01T11:48:40.939Z,24.50
2018-06-01T11:49:41.190Z,25.50
2018-06-01T11:50:41.441Z,26.40
2018-06-01T11:51:41.691Z,27.60
2018-06-01T11:52:41.941Z,27.65
2018-06-01T11:53:42.190Z,28.56
2018-06-01T11:54:42.448Z,28.51
2018-06-01T11:55:42.698Z,29.33
2018-06-01T11:56:42.953Z,29.52
2018-06-01T11:57:43.202Z,29.23
2018-06-01T11:58:43.478Z,30.08
2018-06-01T11:59:43.720Z,29.78
2018-06-01T12:00:43.960Z,29.61
2018-06-01T12:01:44.237Z,29.70
2018-06-01T12:02:44.468Z,29.09
2018-06-01T12:03:44.718Z,29.61
2018-06-01T12:04:44.971Z,29.85
2018-06-01T12:05:45.217Z,30.02
2018-06-01T12:06:45.459Z,30.08
2018-06-01T12:07:45.725Z,29.76
2018-06-01T12:08:45.993Z,28.98
2018-06-01T12:09:46.231Z,28.27
2018-06-01T12:10:46.483Z,27.03
2018-06-01T12:11:46.737Z,26.25
2018-06-01T12:12:46.992Z,27.04
2018-06-01T12:13:47.241Z,28.07
2018-06-01T12:14:47.501Z,27.67
2018-06-01T12:15:47.759Z,26.70
2018-06-01T12:16:48.004Z,26.05
2018-06-01T12:17:48.295Z,25.15
2018-06-01T12:18:48.504Z,24.96
2018-06-01T12:19:48.760Z,24.98
2018-06-01T12:20:49.005Z,24.60
2018-06-01T12:21:49.267Z,24.60
2018-06-01T12:22:49.496Z,24.60
2018-06-01T12:23:49.759Z,24.47
2018-06-01T12:24:49.997Z,24.81
2018-06-01T12:25:50.284Z,24.95
2018-06-01T12:26:50.494Z,24.84
2018-06-01T12:27:50.761Z,24.87
2018-06-01T12:28:51.005Z,24.87
2018-06-01T12:29:51.263Z,25.52
2018-06-01T12:30:51.513Z,26.32
2018-06-01T12:31:51.779Z,26.57
2018-06-01T12:32:52.014Z,25.75
2018-06-01T12:33:52.279Z,25.67
2018-06-01T12:34:52.521Z,25.15
2018-06-01T12:35:52.748Z,24.80
2018-06-01T12:36:53.003Z,24.39
2018-06-01T12:37:53.249Z,24.15
2018-06-01T12:38:53.500Z,24.18
2018-06-01T12:39:53.746Z,24.31
2018-06-01T12:40:54.000Z,24.31
2018-06-01T12:41:54.255Z,24.34
2018-06-01T12:42:54.531Z,24.18
2018-06-01T12:43:54.752Z,24.22
2018-06-01T12:44:55.004Z,24.09
2018-06-01T12:45:55.255Z,23.95
2018-06-01T12:46:55.506Z,24.10
2018-06-01T12:47:55.757Z,24.28
2018-06-01T12:48:56.005Z,24.50
2018-06-01T12:49:56.253Z,24.85
2018-06-01T12:50:56.504Z,25.30
2018-06-01T12:51:56.757Z,26.70
2018-06-01T12:52:57.011Z,28.12
2018-06-01T12:53:57.250Z,27.55
2018-06-01T12:54:57.496Z,27.32
2018-06-01T12:55:57.750Z,26.57